sensor_id;sensor_type;location;lat;lon;timestamp;pressure;altitude;pressure_sealevel;temperature;humidity
18988;BME280;5494;51.796;10.952;2022-08-01T00:01:33;98803.81;;;19.28;99.69
18988;BME280;5494;51.796;10.952;2022-08-01T00:04:02;98805.34;;;19.21;99.83
18988;BME280;5494;51.796;10.952;2022-08-01T00:06:31;98803.91;;;19.17;100.00
18988;BME280;5494;51.796;10.952;2022-08-01T00:08:59;98797.81;;;19.16;100.00
18988;BME280;5494;51.796;10.952;2022-08-01T00:11:28;98795.34;;;19.15;100.00
18988;BME280;5494;51.796;10.952;2022-08-01T00:13:57;98798.09;;;19.23;100.00
18988;BME280;5494;51.796;10.952;2022-08-01T00:16:27;98798.09;;;19.23;100.00
18988;BME280;5494;51.796;10.952;2022-08-01T00:18:56;98795.34;;;19.24;100.00
18988;BME280;5494;51.796;10.952;2022-08-01T00:21:24;98787.56;;;19.23;100.00
18988;BME280;5494;51.796;10.952;2022-08-01T00:23:52;98790.63;;;19.28;100.00
18988;BME280;5494;51.796;10.952;2022-08-01T00:26:22;98793.13;;;19.29;100.00
18988;BME280;5494;51.796;10.952;2022-08-01T00:28:50;98790.09;;;19.34;100.00
18988;BME280;5494;51.796;10.952;2022-08-01T00:31:19;98786.75;;;19.32;100.00
18988;BME280;5494;51.796;10.952;2022-08-01T00:33:48;98788.97;;;19.37;100.00
18988;BME280;5494;51.796;10.952;2022-08-01T00:36:17;98781.50;;;19.42;100.00
18988;BME280;5494;51.796;10.952;2022-08-01T00:38:46;98791.22;;;19.51;100.00
18988;BME280;5494;51.796;10.952;2022-08-01T00:41:14;98792.06;;;19.51;99.74
18988;BME280;5494;51.796;10.952;2022-08-01T00:43:43;98787.84;;;19.39;100.00
18988;BME280;5494;51.796;10.952;2022-08-01T00:46:11;98780.50;;;19.33;100.00
18988;BME280;5494;51.796;10.952;2022-08-01T00:48:40;98779.94;;;19.39;100.00
18988;BME280;5494;51.796;10.952;2022-08-01T00:51:10;98778.69;;;19.43;100.00
18988;BME280;5494;51.796;10.952;2022-08-01T00:53:40;98781.75;;;19.39;100.00
18988;BME280;5494;51.796;10.952;2022-08-01T00:56:21;98775.78;;;19.27;100.00
18988;BME280;5494;51.796;10.952;2022-08-01T00:58:53;98778.00;;;19.22;100.00
18988;BME280;5494;51.796;10.952;2022-08-01T01:01:23;98773.69;;;19.21;100.00
18988;BME280;5494;51.796;10.952;2022-08-01T01:04:05;98773.03;;;19.28;100.00
18988;BME280;5494;51.796;10.952;2022-08-01T01:06:46;98779.81;;;19.31;100.00
18988;BME280;5494;51.796;10.952;2022-08-01T01:09:34;98769.81;;;19.35;100.00
18988;BME280;5494;51.796;10.952;2022-08-01T01:12:18;98762.59;;;19.37;100.00
18988;BME280;5494;51.796;10.952;2022-08-01T01:14:55;98766.78;;;19.39;100.00
18988;BME280;5494;51.796;10.952;2022-08-01T01:17:33;98763.44;;;19.37;100.00
18988;BME280;5494;51.796;10.952;2022-08-01T01:20:20;98766.34;;;19.34;100.00
18988;BME280;5494;51.796;10.952;2022-08-01T01:23:10;98770.94;;;19.32;100.00
18988;BME280;5494;51.796;10.952;2022-08-01T01:25:54;98766.34;;;19.24;100.00
18988;BME280;5494;51.796;10.952;2022-08-01T01:28:37;98767.59;;;19.20;100.00
18988;BME280;5494;51.796;10.952;2022-08-01T01:31:12;98766.19;;;19.07;100.00
18988;BME280;5494;51.796;10.952;2022-08-01T01:33:42;98779.22;;;18.99;100.00
18988;BME280;5494;51.796;10.952;2022-08-01T01:36:16;98777.53;;;18.98;100.00
18988;BME280;5494;51.796;10.952;2022-08-01T01:38:48;98773.25;;;19.06;100.00
18988;BME280;5494;51.796;10.952;2022-08-01T01:41:20;98774.50;;;19.12;100.00
18988;BME280;5494;51.796;10.952;2022-08-01T01:43:52;98773.97;;;19.27;100.00
18988;BME280;5494;51.796;10.952;2022-08-01T01:46:25;98773.84;;;19.39;100.00
18988;BME280;5494;51.796;10.952;2022-08-01T01:48:56;98770.69;;;19.54;100.00
18988;BME280;5494;51.796;10.952;2022-08-01T01:51:28;98769.72;;;19.55;100.00
18988;BME280;5494;51.796;10.952;2022-08-01T01:54:00;98771.41;;;19.56;100.00
18988;BME280;5494;51.796;10.952;2022-08-01T01:56:31;98766.53;;;19.61;100.00
18988;BME280;5494;51.796;10.952;2022-08-01T01:59:03;98774.84;;;19.57;100.00
18988;BME280;5494;51.796;10.952;2022-08-01T02:01:34;98772.06;;;19.58;100.00
18988;BME280;5494;51.796;10.952;2022-08-01T02:04:25;98767.91;;;19.46;100.00
18988;BME280;5494;51.796;10.952;2022-08-01T02:06:56;98772.03;;;19.39;100.00
18988;BME280;5494;51.796;10.952;2022-08-01T02:09:28;98764.69;;;19.33;100.00
18988;BME280;5494;51.796;10.952;2022-08-01T02:11:59;98762.31;;;19.30;100.00
18988;BME280;5494;51.796;10.952;2022-08-01T02:14:36;98774.13;;;19.26;100.00
18988;BME280;5494;51.796;10.952;2022-08-01T02:17:11;98773.00;;;19.19;100.00
18988;BME280;5494;51.796;10.952;2022-08-01T02:19:41;98765.94;;;19.19;100.00
18988;BME280;5494;51.796;10.952;2022-08-01T02:22:15;98774.50;;;19.12;100.00
18988;BME280;5494;51.796;10.952;2022-08-01T02:24:50;98774.38;;;19.13;100.00
18988;BME280;5494;51.796;10.952;2022-08-01T02:27:30;98764.84;;;19.22;100.00
18988;BME280;5494;51.796;10.952;2022-08-01T02:30:05;98763.41;;;19.18;100.00
18988;BME280;5494;51.796;10.952;2022-08-01T02:32:42;98770.91;;;19.13;100.00
18988;BME280;5494;51.796;10.952;2022-08-01T02:35:20;98769.66;;;19.17;100.00
18988;BME280;5494;51.796;10.952;2022-08-01T02:37:49;98763.41;;;19.18;100.00
18988;BME280;5494;51.796;10.952;2022-08-01T02:40:18;98768.44;;;19.21;100.00
18988;BME280;5494;51.796;10.952;2022-08-01T02:42:51;98763.16;;;19.21;100.00
18988;BME280;5494;51.796;10.952;2022-08-01T02:45:25;98764.00;;;19.21;100.00
18988;BME280;5494;51.796;10.952;2022-08-01T02:48:01;98766.47;;;19.23;100.00
18988;BME280;5494;51.796;10.952;2022-08-01T02:50:35;98768.59;;;19.29;100.00
18988;BME280;5494;51.796;10.952;2022-08-01T02:53:07;98764.53;;;19.25;100.00
18988;BME280;5494;51.796;10.952;2022-08-01T02:55:39;98761.19;;;19.23;100.00
18988;BME280;5494;51.796;10.952;2022-08-01T02:58:10;98766.50;;;19.33;100.00
18988;BME280;5494;51.796;10.952;2022-08-01T03:00:44;98770.22;;;19.30;100.00
18988;BME280;5494;51.796;10.952;2022-08-01T03:03:17;98769.25;;;19.31;100.00
18988;BME280;5494;51.796;10.952;2022-08-01T03:05:48;98772.59;;;19.33;100.00
18988;BME280;5494;51.796;10.952;2022-08-01T03:08:20;98780.38;;;19.35;100.00
18988;BME280;5494;51.796;10.952;2022-08-01T03:10:50;98766.78;;;19.39;100.00
18988;BME280;5494;51.796;10.952;2022-08-01T03:13:21;98781.50;;;19.42;100.00
18988;BME280;5494;51.796;10.952;2022-08-01T03:15:53;98777.59;;;19.46;100.00
18988;BME280;5494;51.796;10.952;2022-08-01T03:18:25;98782.88;;;19.46;100.00
18988;BME280;5494;51.796;10.952;2022-08-01T03:20:57;98785.81;;;19.52;100.00
18988;BME280;5494;51.796;10.952;2022-08-01T03:23:31;98792.75;;;19.53;100.00
18988;BME280;5494;51.796;10.952;2022-08-01T03:26:05;98787.75;;;19.70;98.27
18988;BME280;5494;51.796;10.952;2022-08-01T03:28:37;98797.34;;;19.71;98.17
18988;BME280;5494;51.796;10.952;2022-08-01T03:31:07;98800.66;;;19.73;97.81
18988;BME280;5494;51.796;10.952;2022-08-01T03:33:38;98803.72;;;19.68;98.31
18988;BME280;5494;51.796;10.952;2022-08-01T03:36:09;98800.25;;;19.67;97.70
18988;BME280;5494;51.796;10.952;2022-08-01T03:38:40;98805.13;;;19.62;98.58
18988;BME280;5494;51.796;10.952;2022-08-01T03:41:16;98795.53;;;19.61;98.67
18988;BME280;5494;51.796;10.952;2022-08-01T03:43:52;98799.16;;;19.70;98.63
18988;BME280;5494;51.796;10.952;2022-08-01T03:46:33;98800.94;;;19.70;97.90
18988;BME280;5494;51.796;10.952;2022-08-01T03:49:17;98805.97;;;19.63;98.35
18988;BME280;5494;51.796;10.952;2022-08-01T03:51:48;98811.22;;;19.73;97.54
18988;BME280;5494;51.796;10.952;2022-08-01T03:54:22;98810.09;;;19.65;97.36
18988;BME280;5494;51.796;10.952;2022-08-01T03:56:52;98809.84;;;19.69;96.92
18988;BME280;5494;51.796;10.952;2022-08-01T03:59:21;98808.56;;;19.73;96.80
18988;BME280;5494;51.796;10.952;2022-08-01T04:01:50;98812.88;;;19.74;96.39
18988;BME280;5494;51.796;10.952;2022-08-01T04:04:20;98808.72;;;19.81;96.08
18988;BME280;5494;51.796;10.952;2022-08-01T04:06:49;98813.28;;;19.79;95.72
18988;BME280;5494;51.796;10.952;2022-08-01T04:09:21;98800.66;;;19.73;96.58
18988;BME280;5494;51.796;10.952;2022-08-01T04:11:50;98806.78;;;19.83;95.08
18988;BME280;5494;51.796;10.952;2022-08-01T04:14:19;98810.50;;;19.80;95.20
18988;BME280;5494;51.796;10.952;2022-08-01T04:16:47;98803.44;;;19.81;94.57
18988;BME280;5494;51.796;10.952;2022-08-01T04:19:15;98806.47;;;19.86;94.74
18988;BME280;5494;51.796;10.952;2022-08-01T04:21:45;98815.09;;;19.97;93.65
18988;BME280;5494;51.796;10.952;2022-08-01T04:24:18;98809.13;;;20.05;93.14
18988;BME280;5494;51.796;10.952;2022-08-01T04:26:50;98807.00;;;20.09;92.69
18988;BME280;5494;51.796;10.952;2022-08-01T04:29:20;98813.38;;;20.06;92.39
18988;BME280;5494;51.796;10.952;2022-08-01T04:31:54;98811.16;;;20.21;91.10
18988;BME280;5494;51.796;10.952;2022-08-01T04:34:27;98821.16;;;20.17;91.14
18988;BME280;5494;51.796;10.952;2022-08-01T04:37:00;98822.94;;;20.26;91.04
18988;BME280;5494;51.796;10.952;2022-08-01T04:39:33;98830.31;;;20.32;89.56
18988;BME280;5494;51.796;10.952;2022-08-01T04:42:18;98833.50;;;20.26;89.74
18988;BME280;5494;51.796;10.952;2022-08-01T04:44:59;98840.31;;;20.29;89.83
18988;BME280;5494;51.796;10.952;2022-08-01T04:47:30;98838.25;;;20.23;90.04
18988;BME280;5494;51.796;10.952;2022-08-01T04:49:59;98839.47;;;20.28;90.65
18988;BME280;5494;51.796;10.952;2022-08-01T04:52:35;98842.78;;;20.50;88.54
18988;BME280;5494;51.796;10.952;2022-08-01T04:55:06;98842.28;;;20.36;88.97
18988;BME280;5494;51.796;10.952;2022-08-01T04:57:37;98846.84;;;20.44;89.23
18988;BME280;5494;51.796;10.952;2022-08-01T05:00:08;98845.63;;;20.38;90.02
18988;BME280;5494;51.796;10.952;2022-08-01T05:02:37;98856.44;;;20.45;89.53
18988;BME280;5494;51.796;10.952;2022-08-01T05:05:07;98854.50;;;20.37;90.33
18988;BME280;5494;51.796;10.952;2022-08-01T05:07:36;98849.63;;;20.42;89.76
18988;BME280;5494;51.796;10.952;2022-08-01T05:10:11;98850.03;;;20.48;89.52
18988;BME280;5494;51.796;10.952;2022-08-01T05:12:40;98852.25;;;20.52;89.19
18988;BME280;5494;51.796;10.952;2022-08-01T05:15:09;98854.31;;;20.58;88.94
18988;BME280;5494;51.796;10.952;2022-08-01T05:17:42;98859.84;;;20.65;88.72
18988;BME280;5494;51.796;10.952;2022-08-01T05:20:11;98863.47;;;20.64;89.27
18988;BME280;5494;51.796;10.952;2022-08-01T05:22:41;98864.16;;;20.66;89.08
18988;BME280;5494;51.796;10.952;2022-08-01T05:25:09;98870.28;;;20.66;89.32
18988;BME280;5494;51.796;10.952;2022-08-01T05:27:40;98873.31;;;20.71;89.24
18988;BME280;5494;51.796;10.952;2022-08-01T05:30:10;98874.59;;;20.58;89.54
18988;BME280;5494;51.796;10.952;2022-08-01T05:32:39;98874.22;;;20.53;90.09
18988;BME280;5494;51.796;10.952;2022-08-01T05:35:08;98874.50;;;20.40;91.06
18988;BME280;5494;51.796;10.952;2022-08-01T05:37:37;98875.78;;;20.36;91.00
18988;BME280;5494;51.796;10.952;2022-08-01T05:40:09;98867.25;;;20.52;90.30
18988;BME280;5494;51.796;10.952;2022-08-01T05:42:37;98867.53;;;20.49;90.29
18988;BME280;5494;51.796;10.952;2022-08-01T05:45:06;98870.78;;;20.79;89.37
18988;BME280;5494;51.796;10.952;2022-08-01T05:47:34;98862.88;;;21.07;88.18
18988;BME280;5494;51.796;10.952;2022-08-01T05:50:09;98860.72;;;21.30;86.19
18988;BME280;5494;51.796;10.952;2022-08-01T05:52:38;98857.66;;;21.70;83.59
18988;BME280;5494;51.796;10.952;2022-08-01T05:55:09;98864.06;;;21.67;84.66
18988;BME280;5494;51.796;10.952;2022-08-01T05:57:37;98873.13;;;21.65;84.15
18988;BME280;5494;51.796;10.952;2022-08-01T06:00:09;98874.28;;;21.62;84.05
18988;BME280;5494;51.796;10.952;2022-08-01T06:02:42;98884.84;;;21.17;86.96
18988;BME280;5494;51.796;10.952;2022-08-01T06:05:11;98888.94;;;21.02;89.61
18988;BME280;5494;51.796;10.952;2022-08-01T06:07:40;98885.44;;;21.01;90.86
18988;BME280;5494;51.796;10.952;2022-08-01T06:10:10;98895.25;;;20.81;93.36
18988;BME280;5494;51.796;10.952;2022-08-01T06:12:38;98896.44;;;20.60;94.69
18988;BME280;5494;51.796;10.952;2022-08-01T06:15:08;98903.22;;;20.62;95.93
18988;BME280;5494;51.796;10.952;2022-08-01T06:17:37;98899.22;;;20.49;96.46
18988;BME280;5494;51.796;10.952;2022-08-01T06:20:08;98905.34;;;20.59;95.98
18988;BME280;5494;51.796;10.952;2022-08-01T06:22:37;98908.75;;;20.78;96.08
18988;BME280;5494;51.796;10.952;2022-08-01T06:25:09;98910.09;;;20.92;92.75
18988;BME280;5494;51.796;10.952;2022-08-01T06:27:38;98911.59;;;20.67;93.91
18988;BME280;5494;51.796;10.952;2022-08-01T06:30:08;98910.34;;;20.52;94.57
18988;BME280;5494;51.796;10.952;2022-08-01T06:32:37;98907.72;;;20.42;95.06
18988;BME280;5494;51.796;10.952;2022-08-01T06:35:06;98915.38;;;20.36;96.16
18988;BME280;5494;51.796;10.952;2022-08-01T06:37:34;98922.88;;;20.31;97.05
18988;BME280;5494;51.796;10.952;2022-08-01T06:40:03;98921.34;;;20.38;97.85
18988;BME280;5494;51.796;10.952;2022-08-01T06:42:35;98920.38;;;20.39;98.06
18988;BME280;5494;51.796;10.952;2022-08-01T06:45:04;98928.56;;;20.17;98.27
18988;BME280;5494;51.796;10.952;2022-08-01T06:47:34;98921.47;;;20.08;100.00
18988;BME280;5494;51.796;10.952;2022-08-01T06:50:03;98933.44;;;20.12;99.79
18988;BME280;5494;51.796;10.952;2022-08-01T06:52:36;98925.91;;;20.07;100.00
18988;BME280;5494;51.796;10.952;2022-08-01T06:55:06;98928.84;;;20.04;100.00
18988;BME280;5494;51.796;10.952;2022-08-01T06:57:36;98933.41;;;20.21;99.78
18988;BME280;5494;51.796;10.952;2022-08-01T07:00:06;98938.44;;;20.34;99.90
18988;BME280;5494;51.796;10.952;2022-08-01T07:02:38;98923.53;;;20.62;98.27
18988;BME280;5494;51.796;10.952;2022-08-01T07:05:08;98925.47;;;20.69;97.42
18988;BME280;5494;51.796;10.952;2022-08-01T07:07:37;98922.75;;;20.89;98.31
18988;BME280;5494;51.796;10.952;2022-08-01T07:10:07;98922.41;;;21.20;97.10
18988;BME280;5494;51.796;10.952;2022-08-01T07:12:38;98922.88;;;21.61;95.55
18988;BME280;5494;51.796;10.952;2022-08-01T07:15:10;98919.56;;;21.77;91.93
18988;BME280;5494;51.796;10.952;2022-08-01T07:17:39;98919.31;;;21.97;91.00
18988;BME280;5494;51.796;10.952;2022-08-01T07:20:11;98929.28;;;22.39;89.71
18988;BME280;5494;51.796;10.952;2022-08-01T07:22:42;98922.84;;;23.19;83.56
18988;BME280;5494;51.796;10.952;2022-08-01T07:25:14;98916.03;;;24.25;78.79
18988;BME280;5494;51.796;10.952;2022-08-01T07:27:44;98915.69;;;24.52;73.98
18988;BME280;5494;51.796;10.952;2022-08-01T07:30:13;98924.16;;;24.40;74.00
18988;BME280;5494;51.796;10.952;2022-08-01T07:32:41;98922.81;;;24.36;74.94
18988;BME280;5494;51.796;10.952;2022-08-01T07:35:10;98923.13;;;24.16;74.40
18988;BME280;5494;51.796;10.952;2022-08-01T07:37:38;98921.47;;;24.15;74.52
18988;BME280;5494;51.796;10.952;2022-08-01T07:40:18;98927.28;;;24.11;74.51
18988;BME280;5494;51.796;10.952;2022-08-01T07:42:48;98921.75;;;23.88;75.49
18988;BME280;5494;51.796;10.952;2022-08-01T07:45:17;98927.03;;;23.30;76.10
18988;BME280;5494;51.796;10.952;2022-08-01T07:47:46;98934.38;;;23.02;77.65
18988;BME280;5494;51.796;10.952;2022-08-01T07:50:17;98938.66;;;23.03;78.40
18988;BME280;5494;51.796;10.952;2022-08-01T07:52:45;98938.91;;;23.17;78.62
18988;BME280;5494;51.796;10.952;2022-08-01T07:55:13;98939.59;;;23.53;78.06
18988;BME280;5494;51.796;10.952;2022-08-01T08:00:14;98938.69;;;23.87;75.01
18988;BME280;5494;51.796;10.952;2022-08-01T08:02:42;98933.75;;;24.08;73.64
18988;BME280;5494;51.796;10.952;2022-08-01T08:05:11;98929.44;;;23.99;73.50
18988;BME280;5494;51.796;10.952;2022-08-01T08:07:40;98940.47;;;23.62;76.14
18988;BME280;5494;51.796;10.952;2022-08-01T08:10:08;98942.97;;;23.80;75.80
18988;BME280;5494;51.796;10.952;2022-08-01T08:12:37;98942.84;;;23.89;75.48
18988;BME280;5494;51.796;10.952;2022-08-01T08:15:08;98941.75;;;23.50;75.71
18988;BME280;5494;51.796;10.952;2022-08-01T08:17:39;98948.91;;;23.32;77.48
18988;BME280;5494;51.796;10.952;2022-08-01T08:20:08;98940.19;;;23.05;78.43
18988;BME280;5494;51.796;10.952;2022-08-01T08:22:37;98955.69;;;22.92;79.95
18988;BME280;5494;51.796;10.952;2022-08-01T08:25:08;98951.53;;;22.72;81.88
18988;BME280;5494;51.796;10.952;2022-08-01T08:27:38;98954.28;;;22.62;83.95
18988;BME280;5494;51.796;10.952;2022-08-01T08:30:08;98959.25;;;22.39;86.33
18988;BME280;5494;51.796;10.952;2022-08-01T08:32:39;98955.22;;;22.35;88.33
18988;BME280;5494;51.796;10.952;2022-08-01T08:35:09;98962.28;;;22.45;86.55
18988;BME280;5494;51.796;10.952;2022-08-01T08:37:39;98968.84;;;22.58;87.78
18988;BME280;5494;51.796;10.952;2022-08-01T08:40:16;98963.19;;;22.35;86.78
18988;BME280;5494;51.796;10.952;2022-08-01T08:42:45;98969.16;;;22.02;85.92
18988;BME280;5494;51.796;10.952;2022-08-01T08:45:14;98971.13;;;22.00;85.29
18988;BME280;5494;51.796;10.952;2022-08-01T08:47:46;98967.84;;;22.42;83.79
18988;BME280;5494;51.796;10.952;2022-08-01T08:50:17;98969.41;;;22.88;82.11
18988;BME280;5494;51.796;10.952;2022-08-01T08:52:46;98970.91;;;23.16;79.78
18988;BME280;5494;51.796;10.952;2022-08-01T08:55:17;98978.88;;;23.16;79.19
18988;BME280;5494;51.796;10.952;2022-08-01T08:57:47;98981.75;;;23.31;79.06
18988;BME280;5494;51.796;10.952;2022-08-01T09:00:16;98983.38;;;23.24;77.69
18988;BME280;5494;51.796;10.952;2022-08-01T09:02:48;98985.22;;;22.97;78.49
18988;BME280;5494;51.796;10.952;2022-08-01T09:05:17;98985.56;;;22.76;77.55
18988;BME280;5494;51.796;10.952;2022-08-01T09:08:06;98998.81;;;22.41;79.61
18988;BME280;5494;51.796;10.952;2022-08-01T09:10:36;99003.66;;;22.63;78.78
18988;BME280;5494;51.796;10.952;2022-08-01T09:13:08;99004.59;;;22.98;78.07
18988;BME280;5494;51.796;10.952;2022-08-01T09:15:41;99001.28;;;23.47;76.15
18988;BME280;5494;51.796;10.952;2022-08-01T09:18:29;98998.31;;;24.01;74.54
18988;BME280;5494;51.796;10.952;2022-08-01T09:21:15;98993.09;;;24.90;71.26
18988;BME280;5494;51.796;10.952;2022-08-01T09:23:47;98998.22;;;25.16;68.04
18988;BME280;5494;51.796;10.952;2022-08-01T09:26:30;98994.78;;;25.54;67.14
18988;BME280;5494;51.796;10.952;2022-08-01T09:29:03;98997.41;;;25.70;66.78
18988;BME280;5494;51.796;10.952;2022-08-01T09:31:41;99002.75;;;26.32;64.64
18988;BME280;5494;51.796;10.952;2022-08-01T09:34:16;98997.91;;;26.96;63.43
18988;BME280;5494;51.796;10.952;2022-08-01T09:36:49;99017.19;;;26.60;62.26
18988;BME280;5494;51.796;10.952;2022-08-01T09:39:25;99024.06;;;25.62;66.06
18988;BME280;5494;51.796;10.952;2022-08-01T09:41:57;99021.69;;;24.63;69.00
18988;BME280;5494;51.796;10.952;2022-08-01T09:44:39;99029.50;;;23.90;71.84
18988;BME280;5494;51.796;10.952;2022-08-01T09:47:10;99031.50;;;23.54;74.53
18988;BME280;5494;51.796;10.952;2022-08-01T09:49:44;99034.41;;;23.43;76.00
18988;BME280;5494;51.796;10.952;2022-08-01T09:52:21;99033.84;;;23.58;75.92
18988;BME280;5494;51.796;10.952;2022-08-01T09:54:54;99037.84;;;23.62;76.13
18988;BME280;5494;51.796;10.952;2022-08-01T09:57:24;99038.00;;;24.02;75.30
18988;BME280;5494;51.796;10.952;2022-08-01T09:59:55;99036.91;;;24.29;72.51
18988;BME280;5494;51.796;10.952;2022-08-01T10:02:31;99037.19;;;24.10;73.25
18988;BME280;5494;51.796;10.952;2022-08-01T10:05:04;99040.34;;;24.05;73.39
18988;BME280;5494;51.796;10.952;2022-08-01T10:07:36;99045.06;;;24.36;72.43
18988;BME280;5494;51.796;10.952;2022-08-01T10:10:25;99048.63;;;24.02;72.47
18988;BME280;5494;51.796;10.952;2022-08-01T10:12:59;99053.88;;;23.52;73.78
18988;BME280;5494;51.796;10.952;2022-08-01T10:15:30;99049.53;;;22.99;74.61
18988;BME280;5494;51.796;10.952;2022-08-01T10:18:06;99046.59;;;23.28;74.14
18988;BME280;5494;51.796;10.952;2022-08-01T10:20:54;99051.25;;;23.34;73.96
18988;BME280;5494;51.796;10.952;2022-08-01T10:23:26;99052.97;;;23.17;73.79
18988;BME280;5494;51.796;10.952;2022-08-01T10:26:09;99057.97;;;22.95;75.18
18988;BME280;5494;51.796;10.952;2022-08-01T10:28:39;99067.13;;;22.47;76.94
18988;BME280;5494;51.796;10.952;2022-08-01T10:31:09;99060.75;;;22.40;77.60
18988;BME280;5494;51.796;10.952;2022-08-01T10:33:41;99059.41;;;22.54;78.26
18988;BME280;5494;51.796;10.952;2022-08-01T10:36:21;99064.97;;;22.68;77.77
18988;BME280;5494;51.796;10.952;2022-08-01T10:38:53;99057.19;;;23.02;76.20
18988;BME280;5494;51.796;10.952;2022-08-01T10:41:24;99053.22;;;23.32;76.63
18988;BME280;5494;51.796;10.952;2022-08-01T10:43:54;99058.94;;;23.45;74.04
18988;BME280;5494;51.796;10.952;2022-08-01T10:46:24;99054.31;;;23.73;72.63
18988;BME280;5494;51.796;10.952;2022-08-01T10:48:58;99054.53;;;23.88;72.85
18988;BME280;5494;51.796;10.952;2022-08-01T10:51:34;99050.38;;;23.77;72.17
18988;BME280;5494;51.796;10.952;2022-08-01T10:54:19;99046.69;;;23.70;71.91
18988;BME280;5494;51.796;10.952;2022-08-01T10:56:52;99054.94;;;23.67;71.89
18988;BME280;5494;51.796;10.952;2022-08-01T10:59:26;99052.25;;;23.59;72.11
18988;BME280;5494;51.796;10.952;2022-08-01T11:02:27;99051.13;;;23.62;71.00
18988;BME280;5494;51.796;10.952;2022-08-01T11:05:03;99041.97;;;23.56;71.53
18988;BME280;5494;51.796;10.952;2022-08-01T11:07:46;99047.66;;;23.69;71.72
18988;BME280;5494;51.796;10.952;2022-08-01T11:10:25;99047.22;;;23.82;70.92
18988;BME280;5494;51.796;10.952;2022-08-01T11:13:01;99037.88;;;24.12;69.43
18988;BME280;5494;51.796;10.952;2022-08-01T11:15:35;99036.97;;;24.61;68.71
18988;BME280;5494;51.796;10.952;2022-08-01T11:18:31;99041.50;;;24.93;65.94
18988;BME280;5494;51.796;10.952;2022-08-01T11:21:04;99040.63;;;24.77;66.02
18988;BME280;5494;51.796;10.952;2022-08-01T11:23:53;99053.28;;;24.75;66.49
18988;BME280;5494;51.796;10.952;2022-08-01T11:26:24;99041.47;;;25.01;66.14
18988;BME280;5494;51.796;10.952;2022-08-01T11:29:18;99047.13;;;25.23;65.21
18988;BME280;5494;51.796;10.952;2022-08-01T11:31:50;99047.94;;;25.23;63.85
18988;BME280;5494;51.796;10.952;2022-08-01T11:34:19;99050.09;;;25.28;63.58
18988;BME280;5494;51.796;10.952;2022-08-01T11:36:48;99052.69;;;25.52;62.58
18988;BME280;5494;51.796;10.952;2022-08-01T11:39:28;99059.69;;;25.45;62.93
18988;BME280;5494;51.796;10.952;2022-08-01T11:42:18;99064.34;;;25.51;63.37
18988;BME280;5494;51.796;10.952;2022-08-01T11:44:51;99059.75;;;25.21;63.55
18988;BME280;5494;51.796;10.952;2022-08-01T11:47:44;99072.91;;;24.90;65.39
18988;BME280;5494;51.796;10.952;2022-08-01T11:50:33;99064.56;;;24.77;65.83
18988;BME280;5494;51.796;10.952;2022-08-01T11:53:05;99076.38;;;24.90;64.44
18988;BME280;5494;51.796;10.952;2022-08-01T11:55:35;99067.41;;;24.75;65.24
18988;BME280;5494;51.796;10.952;2022-08-01T11:58:06;99072.38;;;24.86;64.70
18988;BME280;5494;51.796;10.952;2022-08-01T12:00:55;99066.22;;;24.78;66.35
18988;BME280;5494;51.796;10.952;2022-08-01T12:03:25;99065.22;;;24.79;66.88
18988;BME280;5494;51.796;10.952;2022-08-01T12:06:00;99065.34;;;24.37;69.56
18988;BME280;5494;51.796;10.952;2022-08-01T12:08:31;99063.06;;;24.58;69.49
18988;BME280;5494;51.796;10.952;2022-08-01T12:11:04;99060.94;;;24.94;68.24
18988;BME280;5494;51.796;10.952;2022-08-01T12:13:40;99071.03;;;24.66;66.79
18988;BME280;5494;51.796;10.952;2022-08-01T12:16:11;99067.34;;;24.51;64.61
18988;BME280;5494;51.796;10.952;2022-08-01T12:18:41;99062.72;;;24.53;62.41
18988;BME280;5494;51.796;10.952;2022-08-01T12:21:09;99080.00;;;24.65;62.64
18988;BME280;5494;51.796;10.952;2022-08-01T12:23:38;99081.00;;;24.64;63.71
18988;BME280;5494;51.796;10.952;2022-08-01T12:26:08;99079.50;;;24.45;65.26
18988;BME280;5494;51.796;10.952;2022-08-01T12:28:57;99080.19;;;24.05;67.32
18988;BME280;5494;51.796;10.952;2022-08-01T12:31:32;99091.66;;;23.72;69.02
18988;BME280;5494;51.796;10.952;2022-08-01T12:34:25;99089.94;;;23.63;69.81
18988;BME280;5494;51.796;10.952;2022-08-01T12:36:57;99091.19;;;23.76;69.86
18988;BME280;5494;51.796;10.952;2022-08-01T12:39:33;99081.09;;;23.88;68.90
18988;BME280;5494;51.796;10.952;2022-08-01T12:42:08;99079.69;;;24.10;67.54
18988;BME280;5494;51.796;10.952;2022-08-01T12:44:39;99074.09;;;24.21;66.10
18988;BME280;5494;51.796;10.952;2022-08-01T12:47:09;99072.66;;;24.43;65.03
18988;BME280;5494;51.796;10.952;2022-08-01T12:49:41;99065.38;;;24.69;65.24
18988;BME280;5494;51.796;10.952;2022-08-01T12:52:11;99068.19;;;24.76;63.99
18988;BME280;5494;51.796;10.952;2022-08-01T12:55:07;99068.72;;;24.71;65.29
18988;BME280;5494;51.796;10.952;2022-08-01T12:57:41;99075.50;;;24.49;65.98
18988;BME280;5494;51.796;10.952;2022-08-01T13:00:16;99074.97;;;24.38;66.13
18988;BME280;5494;51.796;10.952;2022-08-01T13:02:46;99078.28;;;24.31;66.98
18988;BME280;5494;51.796;10.952;2022-08-01T13:05:16;99073.66;;;24.50;66.87
18988;BME280;5494;51.796;10.952;2022-08-01T13:07:48;99078.03;;;24.67;65.94
18988;BME280;5494;51.796;10.952;2022-08-01T13:10:27;99080.97;;;24.56;65.23
18988;BME280;5494;51.796;10.952;2022-08-01T13:12:58;99081.50;;;24.59;66.43
18988;BME280;5494;51.796;10.952;2022-08-01T13:15:30;99089.22;;;24.28;66.41
18988;BME280;5494;51.796;10.952;2022-08-01T13:18:01;99090.84;;;24.13;67.08
18988;BME280;5494;51.796;10.952;2022-08-01T13:21:08;99086.78;;;24.01;65.95
18988;BME280;5494;51.796;10.952;2022-08-01T13:23:38;99073.16;;;23.96;65.99
18988;BME280;5494;51.796;10.952;2022-08-01T13:26:44;99076.78;;;24.29;65.86
18988;BME280;5494;51.796;10.952;2022-08-01T13:29:17;99087.31;;;24.47;62.58
18988;BME280;5494;51.796;10.952;2022-08-01T13:31:46;99079.66;;;24.44;61.92